Time;durP1;ratioP1;P1;durP2;ratioP2;P2;SDS_P1;SDS_P2;PMS_P1;PMS_P2;Temp;Humidity;BMP_temperature;BMP_pressure;BME280_temperature;BME280_humidity;BME280_pressure;Samples;Min_cycle;Max_cycle;Signal;HPM_P1;HPM_P2
2021/05/09 00:01:26;;;;;;;2.52;0.95;;;;;;;13.57;50.54;102130.54;1738329;82;21145;-46
2021/05/09 00:03:55;;;;;;;1.00;0.90;;;;;;;13.54;50.38;102133.20;1738094;82;21148;-43
2021/05/09 00:06:23;;;;;;;0.98;0.80;;;;;;;13.53;50.47;102132.77;1738564;82;21125;-44
2021/05/09 00:08:51;;;;;;;1.75;0.80;;;;;;;13.52;50.09;102138.86;1739355;82;21121;-49
2021/05/09 00:11:19;;;;;;;2.22;1.15;;;;;;;13.48;49.96;102141.09;1741251;82;21140;-44
2021/05/09 00:13:48;;;;;;;3.20;1.00;;;;;;;13.45;49.36;102137.23;1741188;80;21616;-43
2021/05/09 00:16:15;;;;;;;1.70;1.10;;;;;;;13.44;49.34;102140.70;1739158;82;21204;-45
2021/05/09 00:18:44;;;;;;;1.20;0.95;;;;;;;13.43;49.66;102138.56;1739516;82;21183;-44
2021/05/09 00:21:12;;;;;;;2.25;1.40;;;;;;;13.42;49.55;102143.78;1740583;82;21589;-44
2021/05/09 00:23:40;;;;;;;1.65;1.25;;;;;;;13.41;50.23;102151.22;1736427;82;21310;-45
2021/05/09 00:26:08;;;;;;;2.65;1.25;;;;;;;13.41;50.51;102156.02;1743233;82;21302;-44
2021/05/09 00:28:37;;;;;;;2.00;1.15;;;;;;;13.42;50.62;102158.16;1740448;82;21136;-46
2021/05/09 00:31:05;;;;;;;1.70;1.10;;;;;;;13.40;50.67;102162.11;1738121;82;21152;-45
2021/05/09 00:33:33;;;;;;;1.52;1.07;;;;;;;13.37;50.75;102166.52;1738127;82;21157;-45
2021/05/09 00:36:02;;;;;;;2.70;1.52;;;;;;;13.33;50.71;102177.89;1738513;82;21160;-48
2021/05/09 00:38:30;;;;;;;1.42;1.25;;;;;;;13.31;50.49;102172.69;1737943;82;21293;-52
2021/05/09 00:40:58;;;;;;;2.58;1.17;;;;;;;13.30;50.34;102171.38;1738258;82;21168;-45
2021/05/09 00:43:26;;;;;;;1.62;1.35;;;;;;;13.28;49.82;102166.60;1740377;82;21267;-46
2021/05/09 00:45:55;;;;;;;1.32;1.20;;;;;;;13.27;50.09;102172.73;1739834;82;21174;-43
2021/05/09 00:48:23;;;;;;;1.67;1.40;;;;;;;13.26;50.04;102181.44;1738163;82;21159;-43
2021/05/09 00:50:51;;;;;;;2.22;1.40;;;;;;;13.25;50.28;102179.72;1737815;82;21176;-48
2021/05/09 00:53:23;;;;;;;1.22;1.12;;;;;;;13.24;50.14;102181.89;1737532;82;21153;-47
2021/05/09 00:55:51;;;;;;;1.70;1.10;;;;;;;13.23;50.48;102185.41;1739841;82;21168;-47
2021/05/09 00:58:19;;;;;;;1.95;1.60;;;;;;;13.23;50.70;102184.09;1741396;82;21192;-49
2021/05/09 01:00:47;;;;;;;5.47;1.85;;;;;;;13.21;50.81;102192.40;1723192;82;21620;-47
2021/05/09 01:03:16;;;;;;;1.60;1.50;;;;;;;13.20;50.79;102192.83;1719328;82;21143;-44
2021/05/09 01:05:44;;;;;;;1.20;1.10;;;;;;;13.19;51.04;102198.08;1744725;81;21549;-43
2021/05/09 01:08:12;;;;;;;4.40;1.22;;;;;;;13.19;50.88;102198.08;1737814;82;21141;-47
2021/05/09 01:10:41;;;;;;;1.42;1.20;;;;;;;13.21;50.84;102206.77;1733183;81;21711;-46
2021/05/09 01:13:10;;;;;;;3.75;1.30;;;;;;;13.26;50.73;102202.34;1736869;82;21193;-43
2021/05/09 01:15:40;;;;;;;2.12;1.67;;;;;;;13.32;50.58;102206.20;1723391;82;21161;-49
2021/05/09 01:18:08;;;;;;;3.83;1.32;;;;;;;13.39;50.47;102214.42;1692004;84;21380;-43
2021/05/09 01:20:36;;;;;;;1.60;1.50;;;;;;;13.42;50.23;102209.15;1691668;85;21338;-49
2021/05/09 01:23:05;;;;;;;3.10;1.90;;;;;;;13.45;50.07;102214.36;1655241;85;21325;-43
2021/05/09 01:25:34;;;;;;;2.05;1.32;;;;;;;13.47;50.13;102215.22;1676220;85;21192;-47
2021/05/09 01:28:03;;;;;;;1.75;1.40;;;;;;;13.46;49.90;102218.69;1657310;86;21244;-46
2021/05/09 01:30:31;;;;;;;1.85;1.65;;;;;;;13.43;49.88;102216.13;1691701;85;21248;-46
2021/05/09 01:32:59;;;;;;;1.85;1.50;;;;;;;13.40;50.07;102226.60;1676920;85;21198;-44
2021/05/09 01:35:27;;;;;;;1.60;1.50;;;;;;;13.37;50.14;102227.95;1671815;85;21246;-46
2021/05/09 01:37:55;;;;;;;3.35;2.00;;;;;;;13.34;50.19;102235.81;1691214;85;21151;-44
2021/05/09 01:40:23;;;;;;;6.58;3.02;;;;;;;13.28;50.28;102231.52;1675291;85;21160;-48
2021/05/09 01:42:51;;;;;;;13.32;6.92;;;;;;;13.22;50.31;102234.20;1708606;82;21311;-46
2021/05/09 01:45:20;;;;;;;13.05;8.15;;;;;;;13.19;50.41;102239.91;1724339;82;21169;-44
2021/05/09 01:47:48;;;;;;;10.48;5.58;;;;;;;13.12;50.31;102240.82;1726737;82;21180;-44
2021/05/09 01:50:18;;;;;;;5.90;2.85;;;;;;;13.06;49.87;102247.81;1724789;82;21203;-47
2021/05/09 01:52:45;;;;;;;2.45;2.05;;;;;;;13.02;49.39;102253.08;1725215;82;21168;-44
2021/05/09 01:55:19;;;;;;;2.15;1.80;;;;;;;12.97;49.08;102250.49;1725938;82;21303;-49
2021/05/09 01:57:53;;;;;;;3.20;1.70;;;;;;;12.98;49.06;102259.20;1810254;79;23002;-45
2021/05/09 02:00:23;;;;;;;2.40;1.37;;;;;;;12.90;49.09;102259.24;1766552;80;21160;-47
2021/05/09 02:02:53;;;;;;;2.02;1.67;;;;;;;12.85;49.00;102259.73;1781334;80;21160;-47
2021/05/09 02:05:22;;;;;;;2.25;1.70;;;;;;;12.80;49.08;102260.19;1772605;80;21576;-48
2021/05/09 02:07:50;;;;;;;3.40;1.82;;;;;;;12.77;49.21;102260.23;1778384;80;21140;-45
2021/05/09 02:10:19;;;;;;;2.20;2.00;;;;;;;12.74;49.36;102266.77;1779906;80;21160;-44
2021/05/09 02:12:48;;;;;;;1.85;1.75;;;;;;;12.70;49.62;102262.88;1778766;80;21168;-45
2021/05/09 02:15:24;;;;;;;2.55;1.67;;;;;;;12.70;49.93;102269.40;1792354;79;28047;-45
2021/05/09 02:17:52;;;;;;;5.50;1.70;;;;;;;12.67;50.10;102269.44;1766573;80;21136;-49
2021/05/09 02:20:23;;;;;;;12.65;9.93;;;;;;;12.68;50.28;102273.77;1776068;80;21173;-48
2021/05/09 02:22:52;;;;;;;3.70;2.95;;;;;;;12.65;50.62;102281.17;1771041;80;21338;-48
2021/05/09 02:25:21;;;;;;;2.20;1.95;;;;;;;12.63;50.71;102285.54;1770968;79;21278;-47
2021/05/09 02:27:50;;;;;;;3.08;1.85;;;;;;;12.64;50.71;102293.82;1775335;80;21178;-47
2021/05/09 02:30:20;;;;;;;2.20;2.00;;;;;;;12.65;50.50;102302.06;1768257;80;21160;-45
2021/05/09 02:32:49;;;;;;;2.27;1.70;;;;;;;12.62;50.53;102302.10;1757501;80;21242;-45
2021/05/09 02:35:17;;;;;;;2.37;2.10;;;;;;;12.61;50.44;102302.96;1771461;80;21553;-46
2021/05/09 02:37:45;;;;;;;2.37;1.90;;;;;;;12.60;50.45;102316.03;1772544;80;21135;-48
2021/05/09 02:40:15;;;;;;;2.17;1.92;;;;;;;12.57;50.41;102309.08;1771707;80;21179;-45
2021/05/09 02:42:44;;;;;;;4.15;3.20;;;;;;;12.54;50.40;102317.38;1774332;80;21156;-45
2021/05/09 02:45:15;;;;;;;6.65;4.33;;;;;;;12.50;50.02;102313.92;1770438;80;21128;-46
2021/05/09 02:47:42;;;;;;;15.15;9.73;;;;;;;12.43;49.82;102325.69;1776226;80;21112;-48
2021/05/09 02:50:14;;;;;;;37.13;21.68;;;;;;;12.36;49.74;102324.87;1765739;80;21151;-48
2021/05/09 02:52:42;;;;;;;51.83;26.35;;;;;;;12.29;49.85;102329.67;1778666;80;21135;-47
2021/05/09 02:55:13;;;;;;;42.65;25.32;;;;;;;12.23;50.05;102337.09;1766698;80;21104;-48
2021/05/09 02:57:43;;;;;;;38.95;21.07;;;;;;;12.17;50.28;102340.16;1776315;80;21156;-46
2021/05/09 03:00:13;;;;;;;35.10;19.02;;;;;;;12.14;50.52;102346.67;1771281;80;21112;-49
2021/05/09 03:02:44;;;;;;;32.15;18.42;;;;;;;12.09;50.85;102348.45;1768346;80;21140;-45
2021/05/09 03:05:14;;;;;;;22.52;11.70;;;;;;;12.08;51.16;102351.91;1770274;80;21123;-45
2021/05/09 03:07:42;;;;;;;16.77;10.50;;;;;;;12.10;51.35;102360.60;1767900;80;21139;-48
2021/05/09 03:10:12;;;;;;;13.13;8.33;;;;;;;12.12;51.43;102361.47;1770995;80;21143;-46
2021/05/09 03:12:40;;;;;;;8.85;6.05;;;;;;;12.14;51.52;102364.94;1765679;80;21201;-46
2021/05/09 03:15:11;;;;;;;7.12;4.67;;;;;;;12.17;51.58;102363.64;1777899;80;21274;-46
2021/05/09 03:17:39;;;;;;;3.77;3.25;;;;;;;12.22;51.47;102368.39;1769386;80;21565;-45
2021/05/09 03:20:10;;;;;;;3.47;3.00;;;;;;;12.28;51.54;102375.36;1764676;80;21556;-46
2021/05/09 03:22:37;;;;;;;2.47;2.20;;;;;;;12.37;51.54;102373.58;1772749;80;21136;-46
2021/05/09 03:25:07;;;;;;;3.17;2.80;;;;;;;12.52;51.55;102380.05;1760777;80;21140;-46
2021/05/09 03:27:35;;;;;;;2.12;1.92;;;;;;;13.06;50.92;102378.48;1773075;80;21184;-46
2021/05/09 03:30:04;;;;;;;2.25;2.05;;;;;;;13.44;50.39;102370.81;1763226;80;21106;-49
2021/05/09 03:32:32;;;;;;;3.58;2.37;;;;;;;13.87;50.29;102370.86;1766176;80;21165;-48
2021/05/09 03:35:03;;;;;;;2.08;1.87;;;;;;;14.36;49.06;102372.11;1766058;80;21187;-48
2021/05/09 03:37:31;;;;;;;3.12;2.20;;;;;;;14.89;47.47;102376.69;1770205;80;21132;-50
2021/05/09 03:39:59;;;;;;;7.67;2.02;;;;;;;15.21;46.88;102379.70;1770109;80;21100;-50
2021/05/09 03:42:27;;;;;;;4.28;1.90;;;;;;;15.44;46.25;102380.68;1767566;80;21136;-48
2021/05/09 03:44:56;;;;;;;3.08;1.95;;;;;;;15.72;45.74;102383.29;1770092;80;21616;-48
2021/05/09 03:47:26;;;;;;;2.00;1.85;;;;;;;16.04;44.71;102387.95;1761426;80;21100;-48
2021/05/09 03:49:56;;;;;;;2.02;1.85;;;;;;;16.11;43.95;102393.08;1773253;80;21140;-45
2021/05/09 03:52:25;;;;;;;2.50;2.22;;;;;;;15.89;44.12;102391.72;1760631;80;21707;-46
2021/05/09 03:54:54;;;;;;;2.15;1.87;;;;;;;15.67;44.49;102400.86;1770325;80;21636;-48
2021/05/09 03:57:22;;;;;;;2.55;1.92;;;;;;;15.44;44.61;102393.80;1767881;80;21213;-48
2021/05/09 03:59:52;;;;;;;2.20;1.92;;;;;;;15.18;45.02;102407.73;1763425;80;21179;-48
2021/05/09 04:02:20;;;;;;;2.30;2.10;;;;;;;14.94;45.67;102408.08;1771147;80;21144;-51
2021/05/09 04:04:49;;;;;;;2.67;2.02;;;;;;;14.74;46.28;102412.25;1763470;80;21136;-46
2021/05/09 04:07:17;;;;;;;2.37;2.17;;;;;;;14.55;46.42;102419.91;1767581;80;21124;-48
2021/05/09 04:09:44;;;;;;;2.72;2.20;;;;;;;14.37;47.16;102422.30;1768915;80;21148;-45
2021/05/09 04:12:12;;;;;;;2.50;2.27;;;;;;;14.21;47.54;102424.62;1771842;80;21290;-49
2021/05/09 04:14:40;;;;;;;2.70;2.10;;;;;;;14.07;47.59;102434.38;1760115;80;21266;-46
2021/05/09 04:17:09;;;;;;;3.67;2.62;;;;;;;13.97;47.87;102440.58;1772772;80;21274;-45
2021/05/09 04:19:38;;;;;;;2.50;2.22;;;;;;;13.89;48.08;102438.44;1762960;80;21128;-50
2021/05/09 04:22:06;;;;;;;2.50;2.15;;;;;;;13.82;48.12;102442.02;1762348;80;21156;-51
2021/05/09 04:24:34;;;;;;;4.05;2.10;;;;;;;13.73;48.16;102438.15;1768778;80;21167;-46
2021/05/09 04:27:03;;;;;;;2.90;2.08;;;;;;;13.66;48.17;102445.17;1766308;80;21160;-48
2021/05/09 04:29:30;;;;;;;2.05;1.85;;;;;;;13.61;48.74;102446.09;1767315;80;21148;-45
2021/05/09 04:31:59;;;;;;;2.40;1.92;;;;;;;13.58;48.81;102453.98;1766017;80;21104;-50
2021/05/09 04:34:27;;;;;;;4.40;2.27;;;;;;;13.54;49.12;102449.66;1768853;80;21163;-49
2021/05/09 04:36:54;;;;;;;4.42;2.25;;;;;;;13.53;49.41;102455.31;1762966;80;21751;-44
2021/05/09 04:39:23;;;;;;;2.60;2.00;;;;;;;13.55;49.51;102456.60;1773226;80;21271;-48
2021/05/09 04:41:51;;;;;;;5.53;2.50;;;;;;;13.57;49.24;102464.00;1766610;80;21140;-48
2021/05/09 04:44:20;;;;;;;3.52;2.30;;;;;;;13.56;48.90;102460.97;1773657;80;21263;-45
2021/05/09 04:46:48;;;;;;;3.77;2.35;;;;;;;13.51;49.52;102461.00;1773360;80;21160;-45
2021/05/09 04:49:16;;;;;;;4.17;2.50;;;;;;;13.48;49.57;102456.20;1761146;80;21278;-48
2021/05/09 04:51:45;;;;;;;3.52;2.27;;;;;;;13.46;49.43;102459.27;1769868;80;21535;-50
2021/05/09 04:54:12;;;;;;;3.58;2.30;;;;;;;13.46;49.92;102465.80;1763243;80;21553;-47
2021/05/09 04:56:41;;;;;;;7.30;3.05;;;;;;;13.45;49.87;102466.70;1764906;80;21270;-45
2021/05/09 04:59:10;;;;;;;4.08;2.37;;;;;;;13.44;49.87;102463.64;1766985;80;21164;-49
2021/05/09 05:01:38;;;;;;;2.70;2.15;;;;;;;13.42;49.79;102466.27;1766487;80;21144;-46
2021/05/09 05:04:06;;;;;;;2.37;1.90;;;;;;;13.41;50.04;102466.30;1765006;80;21144;-47
2021/05/09 05:06:34;;;;;;;3.33;2.22;;;;;;;13.42;50.02;102473.23;1768980;80;21144;-52
2021/05/09 05:09:05;;;;;;;3.85;2.50;;;;;;;13.44;50.19;102474.09;1762482;80;21140;-48
2021/05/09 05:11:33;;;;;;;1.98;1.77;;;;;;;13.45;49.96;102476.73;1779426;80;21152;-45
2021/05/09 05:14:00;;;;;;;4.00;2.10;;;;;;;13.49;50.15;102477.14;1766388;80;21179;-45
2021/05/09 05:16:29;;;;;;;3.25;2.30;;;;;;;13.53;49.87;102475.36;1757704;81;21136;-45
2021/05/09 05:18:57;;;;;;;2.17;1.98;;;;;;;13.56;49.86;102483.20;1760395;80;21144;-44
2021/05/09 05:21:25;;;;;;;5.28;2.20;;;;;;;13.58;50.34;102487.98;1756134;81;21294;-44
2021/05/09 05:23:52;;;;;;;4.00;2.12;;;;;;;13.62;49.80;102482.70;1762991;81;21271;-48
2021/05/09 05:26:20;;;;;;;2.37;2.12;;;;;;;13.69;49.78;102484.84;1751972;81;21132;-47
2021/05/09 05:28:48;;;;;;;2.85;2.45;;;;;;;13.88;49.67;102492.98;1764079;81;21136;-45
2021/05/09 05:31:16;;;;;;;2.33;2.02;;;;;;;14.24;48.95;102488.73;1754988;81;21141;-47
2021/05/09 05:33:44;;;;;;;2.45;2.08;;;;;;;14.67;48.21;102484.82;1759000;81;21144;-44
2021/05/09 05:36:13;;;;;;;2.37;1.90;;;;;;;15.21;47.56;102486.34;1759823;81;21128;-46
2021/05/09 05:38:41;;;;;;;2.35;2.15;;;;;;;15.83;46.08;102492.02;1754392;81;21161;-48
2021/05/09 05:41:09;;;;;;;3.77;1.87;;;;;;;16.41;44.93;102497.14;1756019;81;21149;-52
2021/05/09 05:43:37;;;;;;;2.77;2.40;;;;;;;16.75;44.51;102486.02;1756511;81;21632;-48
2021/05/09 05:46:06;;;;;;;4.53;2.20;;;;;;;17.10;43.27;102485.29;1758564;81;21152;-49
2021/05/09 05:48:34;;;;;;;3.30;2.60;;;;;;;17.51;42.44;102489.23;1757723;81;21136;-46
2021/05/09 05:51:02;;;;;;;2.70;1.92;;;;;;;17.98;41.29;102495.11;1763892;81;22248;-49
2021/05/09 05:53:31;;;;;;;3.08;2.35;;;;;;;18.42;41.00;102498.80;1759109;81;21195;-48
2021/05/09 05:55:59;;;;;;;2.95;2.30;;;;;;;18.76;39.59;102493.04;1761952;81;21561;-50
2021/05/09 05:58:27;;;;;;;3.25;2.45;;;;;;;18.87;38.88;102493.61;1751950;81;21286;-49
2021/05/09 06:00:55;;;;;;;2.60;2.40;;;;;;;18.79;38.60;102496.92;1764735;81;21156;-46
2021/05/09 06:03:23;;;;;;;2.65;1.82;;;;;;;18.79;38.87;102500.00;1753606;81;21105;-47
2021/05/09 06:05:54;;;;;;;2.75;2.47;;;;;;;18.92;39.06;102499.60;1760807;81;21125;-46
2021/05/09 06:08:22;;;;;;;3.17;1.85;;;;;;;19.17;38.27;102503.26;1757932;81;21168;-50
2021/05/09 06:10:50;;;;;;;2.90;2.20;;;;;;;19.44;37.90;102501.14;1759644;81;21172;-47
2021/05/09 06:13:22;;;;;;;2.50;2.10;;;;;;;19.72;37.38;102504.25;1759282;81;21171;-48
2021/05/09 06:15:51;;;;;;;4.15;2.17;;;;;;;19.92;36.75;102495.21;1758048;81;21164;-48
2021/05/09 06:18:19;;;;;;;3.05;2.27;;;;;;;20.13;36.71;102495.83;1758680;81;21150;-50
2021/05/09 06:20:47;;;;;;;4.70;2.45;;;;;;;20.31;35.84;102501.83;1757185;81;21133;-49
2021/05/09 06:23:26;;;;;;;2.22;2.02;;;;;;;20.26;35.88;102513.01;1756078;81;21141;-48
2021/05/09 06:25:52;;;;;;;2.47;2.17;;;;;;;20.30;35.96;102508.02;1691993;84;21183;-48
2021/05/09 06:28:21;;;;;;;2.67;2.25;;;;;;;20.36;35.57;102509.13;1663017;85;21186;-50
2021/05/09 06:30:49;;;;;;;3.70;2.15;;;;;;;20.28;35.79;102505.89;1663419;85;21203;-45
2021/05/09 06:33:17;;;;;;;2.72;1.90;;;;;;;20.22;35.67;102512.70;1625830;88;21209;-49
2021/05/09 06:35:45;;;;;;;2.58;2.25;;;;;;;20.09;35.96;102512.70;1694169;84;21613;-48
2021/05/09 06:38:12;;;;;;;3.10;2.05;;;;;;;19.96;36.03;102514.02;1663163;85;21619;-48
2021/05/09 06:40:42;;;;;;;2.37;1.90;;;;;;;19.83;36.10;102515.31;1695914;83;21716;-46
2021/05/09 06:43:10;;;;;;;3.72;2.47;;;;;;;19.74;36.33;102517.78;1694191;84;21229;-46
2021/05/09 06:45:38;;;;;;;2.25;2.02;;;;;;;19.59;36.60;102516.09;1704664;84;21134;-51
2021/05/09 06:48:07;;;;;;;2.27;2.00;;;;;;;19.53;36.93;102521.58;1662409;85;21154;-48
2021/05/09 06:50:35;;;;;;;3.65;2.02;;;;;;;19.48;36.44;102525.22;1662495;85;21198;-51
2021/05/09 06:53:03;;;;;;;2.95;2.27;;;;;;;19.39;36.65;102520.69;1666794;85;21182;-46
2021/05/09 06:55:33;;;;;;;2.22;2.02;;;;;;;19.30;37.03;102517.83;1670663;85;21179;-49
2021/05/09 06:58:07;;;;;;;2.40;2.15;;;;;;;19.32;37.25;102526.56;1698443;84;21251;-47
2021/05/09 07:00:34;;;;;;;2.70;2.30;;;;;;;19.36;37.22;102529.55;1697832;83;21170;-46
2021/05/09 07:03:04;;;;;;;2.35;1.85;;;;;;;19.47;36.41;102528.75;1698405;83;21174;-45
2021/05/09 07:05:35;;;;;;;2.67;2.08;;;;;;;19.44;36.84;102531.51;1685079;83;21177;-49
2021/05/09 07:08:04;;;;;;;2.98;2.40;;;;;;;19.53;36.98;102525.53;1663399;85;21372;-46
2021/05/09 07:10:36;;;;;;;2.22;2.02;;;;;;;19.70;36.83;102529.36;1694898;83;21271;-48
2021/05/09 07:13:03;;;;;;;;;;;;;;;19.87;36.50;102531.47;1678664;83;21182;-48
2021/05/09 07:15:37;;;;;;;1.90;1.80;;;;;;;20.04;36.39;102530.48;1694318;83;20444;-48
2021/05/09 07:18:20;;;;;;;3.62;2.02;;;;;;;20.31;36.02;102530.91;1667277;85;21146;-46
2021/05/09 07:20:51;;;;;;;2.60;2.00;;;;;;;20.58;35.83;102531.29;1664419;85;21187;-47
2021/05/09 07:23:16;;;;;;;2.10;1.90;;;;;;;20.91;35.77;102530.08;1685949;84;21304;-49
2021/05/09 07:25:44;;;;;;;2.12;1.90;;;;;;;21.12;35.35;102532.88;1733182;82;21613;-46
2021/05/09 07:28:16;;;;;;;2.55;2.00;;;;;;;21.33;34.85;102528.11;1731456;82;21160;-47
2021/05/09 07:30:44;;;;;;;2.10;1.90;;;;;;;21.38;34.32;102531.42;1730635;82;21133;-46
2021/05/09 07:33:13;;;;;;;2.67;2.30;;;;;;;21.25;34.49;102542.06;1733437;82;21570;-49
2021/05/09 07:35:42;;;;;;;3.00;2.20;;;;;;;21.04;34.78;102536.66;1734383;82;21121;-48
2021/05/09 07:38:12;;;;;;;1.92;1.65;;;;;;;20.78;35.21;102530.11;1734314;82;21164;-47
2021/05/09 07:40:41;;;;;;;2.85;2.45;;;;;;;20.50;35.17;102545.23;1732879;82;21125;-50
2021/05/09 07:43:11;;;;;;;2.55;2.33;;;;;;;20.23;34.83;102540.88;1733675;82;21192;-47
2021/05/09 07:45:40;;;;;;;3.25;2.22;;;;;;;19.99;35.88;102538.55;1723668;82;21298;-46
2021/05/09 07:48:09;;;;;;;2.42;1.75;;;;;;;19.84;36.29;102546.12;1727718;82;21291;-46
2021/05/09 07:50:39;;;;;;;2.33;2.12;;;;;;;19.70;37.19;102553.62;1734507;82;21605;-48
2021/05/09 07:53:08;;;;;;;2.77;2.00;;;;;;;19.60;36.81;102553.02;1729976;82;21167;-48
2021/05/09 07:55:36;;;;;;;3.47;2.10;;;;;;;19.34;36.89;102545.89;1723820;82;21306;-47
2021/05/09 07:58:18;;;;;;;2.80;2.05;;;;;;;19.04;37.13;102549.38;1731135;82;21160;-48
2021/05/09 08:00:48;;;;;;;2.47;1.87;;;;;;;18.82;37.20;102548.25;1728349;82;21152;-47
2021/05/09 08:03:16;;;;;;;2.47;1.95;;;;;;;18.63;38.04;102545.24;1732650;82;21153;-46
2021/05/09 08:05:45;;;;;;;2.35;1.67;;;;;;;18.58;38.61;102543.20;1730996;82;21298;-51
2021/05/09 08:08:14;;;;;;;2.08;1.60;;;;;;;18.56;38.11;102548.09;1733374;82;21181;-45
2021/05/09 08:10:44;;;;;;;2.05;1.90;;;;;;;18.52;37.93;102535.91;1731556;82;21160;-45
2021/05/09 08:13:13;;;;;;;1.67;1.57;;;;;;;18.54;38.24;102540.68;1731169;82;21121;-48
2021/05/09 08:15:42;;;;;;;1.67;1.50;;;;;;;18.54;37.81;102548.14;1744886;80;21341;-47
2021/05/09 08:18:10;;;;;;;3.37;1.72;;;;;;;18.57;37.96;102552.45;1762870;80;21337;-51
2021/05/09 08:20:39;;;;;;;2.90;2.05;;;;;;;18.62;37.87;102555.84;1768829;80;21113;-45
2021/05/09 08:23:07;;;;;;;1.30;1.20;;;;;;;18.64;36.82;102558.86;1766484;80;21202;-48
2021/05/09 08:25:37;;;;;;;1.25;1.15;;;;;;;18.59;36.90;102549.31;1767032;80;21592;-49
2021/05/09 08:28:05;;;;;;;2.58;1.70;;;;;;;18.58;35.61;102555.06;1765843;80;21104;-49
2021/05/09 08:30:32;;;;;;;1.52;1.40;;;;;;;18.58;35.50;102558.15;1768936;80;21613;-48
2021/05/09 08:33:01;;;;;;;1.20;1.10;;;;;;;18.61;35.34;102560.23;1763253;80;21285;-46
2021/05/09 08:35:29;;;;;;;2.67;1.30;;;;;;;18.71;35.15;102564.84;1772544;80;21168;-46
2021/05/09 08:37:57;;;;;;;1.37;1.25;;;;;;;18.78;35.00;102569.02;1760375;80;21139;-45
2021/05/09 08:40:26;;;;;;;1.40;1.30;;;;;;;18.81;34.96;102570.27;1772143;80;21171;-49
2021/05/09 08:42:54;;;;;;;1.47;1.35;;;;;;;18.89;34.45;102565.65;1763892;80;21120;-45
2021/05/09 08:45:21;;;;;;;1.47;1.05;;;;;;;18.91;34.10;102560.33;1771491;80;21136;-48
2021/05/09 08:47:51;;;;;;;1.92;1.02;;;;;;;18.90;34.39;102563.41;1767373;80;21168;-46
2021/05/09 08:50:20;;;;;;;1.10;1.00;;;;;;;18.93;34.05;102569.94;1774216;80;21770;-49
2021/05/09 08:52:49;;;;;;;1.45;1.15;;;;;;;18.98;33.88;102578.56;1767191;80;21163;-45
2021/05/09 08:55:22;;;;;;;1.52;1.00;;;;;;;19.04;33.77;102570.48;1765393;80;21184;-48
2021/05/09 08:57:50;;;;;;;1.30;1.12;;;;;;;19.11;33.63;102566.77;1717110;83;21598;-45
2021/05/09 09:00:19;;;;;;;1.20;1.10;;;;;;;19.22;33.49;102564.70;1707020;83;21209;-48
2021/05/09 09:02:48;;;;;;;1.40;1.30;;;;;;;19.25;33.55;102560.64;1698363;83;21239;-50
2021/05/09 09:05:17;;;;;;;1.40;1.30;;;;;;;19.27;32.99;102562.78;1706096;83;21241;-48
2021/05/09 09:07:51;;;;;;;1.70;1.07;;;;;;;19.29;32.83;102563.59;1708256;83;21162;-46
2021/05/09 09:10:32;;;;;;;1.72;1.17;;;;;;;19.30;32.43;102571.94;1705045;83;21182;-51
2021/05/09 09:13:27;;;;;;;1.52;1.10;;;;;;;19.33;31.97;102559.98;1837564;77;23079;-50
2021/05/09 09:16:00;;;;;;;1.10;1.00;;;;;;;19.26;32.13;102567.66;1806897;78;21165;-51
2021/05/09 09:18:38;;;;;;;1.57;0.90;;;;;;;19.23;31.83;102566.41;1809780;78;21153;-46
2021/05/09 09:21:29;;;;;;;1.80;1.25;;;;;;;19.19;32.00;102566.55;1805041;78;21465;-48
2021/05/09 09:24:11;;;;;;;1.15;0.98;;;;;;;19.18;32.39;102564.38;1743913;81;21640;-48
2021/05/09 09:26:52;;;;;;;1.12;0.90;;;;;;;19.17;32.11;102558.68;1748308;81;21163;-46
2021/05/09 09:32:08;;;;;;;1.07;0.98;;;;;;;19.20;31.81;102566.52;1792090;79;23051;-52
2021/05/09 09:34:46;;;;;;;1.35;1.05;;;;;;;19.21;31.81;102568.68;1780188;80;21167;-48
2021/05/09 09:39:54;;;;;;;1.47;1.12;;;;;;;19.34;32.42;102569.66;1771512;79;22946;-48
2021/05/09 09:42:41;;;;;;;1.42;0.93;;;;;;;19.32;32.87;102572.77;1739479;82;21184;-48
2021/05/09 09:45:25;;;;;;;3.98;1.30;;;;;;;19.35;33.05;102562.13;1744424;82;21767;-46
2021/05/09 09:47:56;;;;;;;1.02;0.90;;;;;;;19.41;32.60;102571.19;1743888;82;21294;-46
2021/05/09 09:50:47;;;;;;;;;;;;;;;19.43;32.17;102577.28;1694620;84;21192;-44
2021/05/09 09:53:39;;;;;;;1.45;0.90;;;;;;;19.49;31.69;102573.14;1693422;84;20226;-48
2021/05/09 09:56:19;;;;;;;2.22;1.55;;;;;;;19.58;31.97;102577.77;1689773;84;21171;-47
2021/05/09 09:58:59;;;;;;;1.67;1.35;;;;;;;19.65;32.12;102577.52;1687574;84;21183;-45
2021/05/09 10:01:36;;;;;;;2.80;1.50;;;;;;;19.70;31.90;102570.78;1690461;84;21188;-45
2021/05/09 10:04:10;;;;;;;0.80;0.80;;;;;;;19.82;31.85;102575.23;1771553;79;22918;-45
2021/05/09 10:06:40;;;;;;;2.35;1.00;;;;;;;19.80;30.27;102573.55;1736492;82;21129;-45
2021/05/09 10:09:09;;;;;;;1.82;0.80;;;;;;;19.40;31.77;102574.75;1738105;82;21164;-44
2021/05/09 10:11:39;;;;;;;1.47;1.05;;;;;;;19.25;31.42;102580.44;1736907;81;21263;-48
2021/05/09 10:14:07;;;;;;;1.12;1.00;;;;;;;19.18;32.48;102584.17;1727626;81;21573;-49
2021/05/09 10:16:44;;;;;;;1.62;1.00;;;;;;;19.22;32.29;102582.30;1732002;82;21132;-44
2021/05/09 10:19:16;;;;;;;0.85;0.78;;;;;;;19.26;31.47;102574.27;1738268;82;21556;-45
2021/05/09 10:21:44;;;;;;;1.00;0.80;;;;;;;19.31;31.80;102577.61;1710296;82;21569;-46
2021/05/09 10:24:25;;;;;;;1.70;1.17;;;;;;;19.37;31.90;102573.51;1730242;82;21173;-46
2021/05/09 10:27:07;;;;;;;1.10;1.00;;;;;;;19.41;31.16;102576.46;1737588;82;21156;-49
2021/05/09 10:29:41;;;;;;;1.25;0.88;;;;;;;19.43;31.19;102577.28;1740171;82;21157;-47
2021/05/09 10:32:22;;;;;;;1.72;1.00;;;;;;;19.47;30.99;102567.04;1737886;82;21140;-51
2021/05/09 10:34:57;;;;;;;0.80;0.80;;;;;;;19.50;30.93;102568.73;1738900;82;21165;-45
2021/05/09 10:37:52;;;;;;;2.15;0.85;;;;;;;19.49;31.25;102559.94;1738002;81;21176;-46
2021/05/09 10:40:24;;;;;;;2.15;1.00;;;;;;;19.53;31.21;102563.82;1746694;82;21289;-46
2021/05/09 10:43:15;;;;;;;1.87;1.05;;;;;;;19.59;30.82;102558.34;1737559;81;21167;-48
2021/05/09 10:45:49;;;;;;;1.30;0.95;;;;;;;19.61;30.68;102560.48;1741759;82;21196;-47
2021/05/09 10:48:26;;;;;;;1.10;0.90;;;;;;;19.63;30.82;102557.34;1736439;80;21341;-48
2021/05/09 10:51:03;;;;;;;1.80;1.25;;;;;;;19.65;30.81;102552.88;1739739;82;21213;-44
2021/05/09 10:56:20;;;;;;;1.12;0.85;;;;;;;19.76;31.18;102558.70;1809362;79;22693;-46
2021/05/09 10:58:54;;;;;;;1.32;0.90;;;;;;;19.72;30.77;102557.07;1779966;80;21171;-46
2021/05/09 11:01:29;;;;;;;2.80;0.95;;;;;;;19.68;30.56;102566.84;1778500;80;21585;-49
2021/05/09 11:04:07;;;;;;;1.10;0.90;;;;;;;19.67;30.65;102561.62;1749082;82;21608;-48
2021/05/09 11:06:50;;;;;;;1.00;0.80;;;;;;;19.70;30.04;102558.90;1749226;82;21167;-48
2021/05/09 11:09:28;;;;;;;1.02;0.90;;;;;;;19.71;30.59;102564.57;1750295;82;21168;-45
2021/05/09 11:12:00;;;;;;;0.95;0.90;;;;;;;19.70;30.25;102562.37;1748914;82;21144;-49
2021/05/09 11:14:28;;;;;;;1.00;0.90;;;;;;;19.65;30.63;102566.08;1756227;82;21147;-48
2021/05/09 11:17:07;;;;;;;0.78;0.72;;;;;;;19.59;30.72;102568.47;1755768;82;21640;-46
2021/05/09 11:19:44;;;;;;;0.80;0.80;;;;;;;19.57;30.17;102562.81;1755603;82;21279;-49
2021/05/09 11:22:12;;;;;;;0.90;0.90;;;;;;;19.60;30.55;102557.45;1755694;82;21140;-46
2021/05/09 11:24:41;;;;;;;0.80;0.80;;;;;;;19.64;29.95;102560.41;1755681;82;21140;-47
2021/05/09 11:27:16;;;;;;;1.62;1.05;;;;;;;19.68;30.95;102556.77;1755695;82;21167;-48
2021/05/09 11:29:50;;;;;;;1.07;0.88;;;;;;;19.74;31.25;102555.25;1756000;82;22022;-46
2021/05/09 11:32:20;;;;;;;1.27;0.80;;;;;;;19.80;30.18;102555.92;1748588;82;21212;-49
2021/05/09 11:35:00;;;;;;;1.17;0.70;;;;;;;19.87;29.63;102551.28;1755616;82;21153;-46
2021/05/09 11:37:37;;;;;;;2.08;0.70;;;;;;;19.87;29.49;102556.12;1755632;82;21160;-53
2021/05/09 11:40:14;;;;;;;2.17;0.80;;;;;;;19.92;30.10;102555.98;1806948;79;23005;-46
2021/05/09 11:42:45;;;;;;;2.37;0.75;;;;;;;19.81;30.35;102558.95;1786078;80;21136;-51
2021/05/09 11:45:12;;;;;;;3.42;1.20;;;;;;;19.72;30.21;102553.11;1788209;80;21148;-46
2021/05/09 11:47:41;;;;;;;1.62;0.70;;;;;;;19.68;31.05;102551.48;1742783;81;21153;-47